This is the latest recevied weather packets stored in our database for station/object OK1KZE-6. If no packets are shown the sender has not sent any weather packets the latest 10 day(s).
| Time | Temp. | Humidity | Pressure | Rain* | Wind** | Luminosity | Snow |
|---|---|---|---|---|---|---|---|
| 1777956309 | 13.89° C | 82% | 1011 hPa | - | - | - | - |
| 1777956008 | 13.33° C | 84% | 1011 hPa | - | - | - | - |
| 1777955707 | 14.44° C | 79% | 1010.9 hPa | - | - | - | - |
| 1777955408 | 14.44° C | 78% | 1011.1 hPa | - | - | - | - |
| 1777955110 | 13.89° C | 82% | 1011 hPa | - | - | - | - |
| 1777954808 | 13.33° C | 86% | 1011 hPa | - | - | - | - |
| 1777954508 | 13.33° C | 86% | 1011.1 hPa | - | - | - | - |
| 1777954208 | 13.89° C | 82% | 1011.2 hPa | - | - | - | - |
| 1777953908 | 12.78° C | 89% | 1011 hPa | - | - | - | - |
| 1777953610 | 12.78° C | 87% | 1011.2 hPa | - | - | - | - |
| 1777953007 | 13.33° C | 84% | 1011.2 hPa | - | - | - | - |
| 1777952706 | 13.33° C | 84% | 1011 hPa | - | - | - | - |
| 1777952407 | 13.89° C | 80% | 1011 hPa | - | - | - | - |
| 1777952108 | 13.89° C | 81% | 1011.2 hPa | - | - | - | - |
| 1777951507 | 13.89° C | 83% | 1011.2 hPa | - | - | - | - |
| 1777951207 | 13.89° C | 84% | 1011.2 hPa | - | - | - | - |
| 1777950908 | 13.89° C | 84% | 1011.4 hPa | - | - | - | - |
| 1777950608 | 13.89° C | 80% | 1011.3 hPa | - | - | - | - |
| 1777950308 | 13.33° C | 85% | 1011.5 hPa | - | - | - | - |
| 1777950008 | 13.89° C | 84% | 1011.5 hPa | - | - | - | - |
| 1777949707 | 13.89° C | 83% | 1011.5 hPa | - | - | - | - |
| 1777949408 | 13.89° C | 81% | 1011.6 hPa | - | - | - | - |
| 1777949108 | 14.44° C | 79% | 1011.5 hPa | - | - | - | - |
| 1777948808 | 14.44° C | 79% | 1011.6 hPa | - | - | - | - |
| 1777948507 | 14.44° C | 77% | 1011.5 hPa | - | - | - | - |
* Rain since midnight (hover to see other rain measurements)
** Current wind speed in m/s (hover to see current wind gust speed)